Hlavní strana
METAR-TAF:

METAR-TAF

Letiště :

Letiště Atény

Athény, Řecko

zeměpisná šířka: 37-56N, zeměpisná délka: 023-56E, výška: 94 m

Aktuální stav počasí

Zpráva byla vytvořena před 31 minutami, v 20:50 UTC
Severoseverovýchodní vítr 16 kt
Teplota 22°C
Vlhkost vzduchu 50%
Tlak 1019 hPa
Viditelnost 10 km a více
Žádná oblačnost pod 1500 m, nevyskytují se cumulonimby.

METAR: LGAV 182050Z 02016KT CAVOK 22/11 Q1019 NOSIG

Čas: 00:21 (21:21 UTC)

Předpověď počasí

Zpráva byla vytvořena před 4 hodinami a 21 minutami, v 17:00 UTC
Předpověď platná od 18 v 18 UTC do 19 v 18 UTC
Severní vítr 13 kt
Viditelnost 10 km a více
Skoro jasno ve výšce 2500 ft
Dočasný
od 18 v 18 UTC do 19 v 03 UTC
Severní vítr 13 kt s nárazy do 23 kt
Změna
od 19 v 03 UTC do 19 v 05 UTC
Severní vítr 23 kt s nárazy do 33 kt

TAF: LGAV 181700Z 1818/1918 36013KT 9999 FEW025 TEMPO 1818/1903 36013G23KT BECMG 1903/1905 01023G33KT

Stav a předpovědi počasí z více než 4 000 letišť (zprávy METAR a TAF).

Červené a žluté tečky na mapě představují dostupné meteorologické stanice.

Když kurzor umístíte na tečku, zobrazí se název stanice.

Pak kliknutím zobrazíte stav a předpověď počasí.

Chcete-li změnit mapu, kliknutím na zelené tlačítko se znaménkem +mapu přiblížíte, kliknutím na zelené tlačítko se znaménkem – mapu oddálíte a kliknutím na zelené šipky přejdete na sousední mapy.


METAR-TAF: